createdAt,value
2022-11-12T00:18:27.505Z,12.60
2022-11-12T00:48:54.611Z,9.77
2022-11-12T01:19:21.916Z,7.20
2022-11-12T01:49:57.408Z,5.73
2022-11-12T02:20:27.046Z,5.83
2022-11-12T02:50:58.579Z,5.00
2022-11-12T03:21:25.495Z,5.07
2022-11-12T03:51:52.589Z,5.73
2022-11-12T04:22:22.592Z,5.40
2022-11-12T04:52:49.700Z,4.93
2022-11-12T05:23:16.398Z,3.93
2022-11-12T05:53:43.660Z,3.83
2022-11-12T06:24:10.898Z,6.17
2022-11-12T06:54:37.905Z,7.07
2022-11-12T07:25:05.895Z,95.97
2022-11-12T07:55:32.819Z,10.45
2022-11-12T08:26:04.216Z,12.20
2022-11-12T08:56:31.402Z,6.47
2022-11-12T09:26:58.826Z,5.88
2022-11-12T09:57:25.774Z,6.25
2022-11-12T10:27:53.206Z,4.60
2022-11-12T10:58:25.364Z,5.00
2022-11-12T11:28:59.554Z,5.50
2022-11-12T11:59:44.264Z,7.17
2022-11-12T12:30:23.681Z,7.60
2022-11-12T13:01:01.189Z,6.73
2022-11-12T13:31:34.638Z,7.13
2022-11-12T14:02:07.493Z,5.13
2022-11-12T14:32:38.602Z,6.37
2022-11-12T15:03:09.654Z,13.00
2022-11-12T15:33:40.036Z,23.30
2022-11-12T16:04:15.524Z,40.47
2022-11-12T16:34:42.574Z,61.53
2022-11-12T17:05:17.429Z,81.10
2022-11-12T17:35:44.766Z,70.37
2022-11-12T18:06:18.105Z,152.00
2022-11-12T18:36:50.040Z,65.27
2022-11-12T19:07:21.034Z,50.30
2022-11-12T19:37:48.386Z,42.87
2022-11-12T20:08:15.586Z,46.77
2022-11-12T20:38:47.626Z,53.00
2022-11-12T21:09:14.595Z,47.30
2022-11-12T21:39:41.590Z,34.37
2022-11-12T22:10:09.233Z,38.13
2022-11-12T22:40:36.243Z,36.43
2022-11-12T23:11:05.647Z,33.13
2022-11-12T23:41:33.020Z,29.37
